sensor_id;sensor_type;location;lat;lon;timestamp;P1;durP1;ratioP1;P2;durP2;ratioP2
40150;SDS011;25866;52.420;10.640;2024-01-30T00:00:14;9.17;;;7.10;;
40150;SDS011;25866;52.420;10.640;2024-01-30T00:02:41;11.53;;;7.10;;
40150;SDS011;25866;52.420;10.640;2024-01-30T00:05:08;12.30;;;7.40;;
40150;SDS011;25866;52.420;10.640;2024-01-30T00:07:34;9.90;;;6.93;;
40150;SDS011;25866;52.420;10.640;2024-01-30T00:09:59;10.00;;;7.33;;
40150;SDS011;25866;52.420;10.640;2024-01-30T00:12:25;13.47;;;7.33;;
40150;SDS011;25866;52.420;10.640;2024-01-30T00:17:26;11.63;;;6.80;;
40150;SDS011;25866;52.420;10.640;2024-01-30T00:19:52;8.53;;;6.57;;
40150;SDS011;25866;52.420;10.640;2024-01-30T00:22:18;9.63;;;6.70;;
40150;SDS011;25866;52.420;10.640;2024-01-30T00:24:44;11.53;;;7.53;;
40150;SDS011;25866;52.420;10.640;2024-01-30T00:27:10;10.27;;;7.07;;
40150;SDS011;25866;52.420;10.640;2024-01-30T00:29:35;8.83;;;7.00;;
40150;SDS011;25866;52.420;10.640;2024-01-30T00:32:01;9.53;;;6.97;;
40150;SDS011;25866;52.420;10.640;2024-01-30T00:34:27;10.30;;;6.63;;
40150;SDS011;25866;52.420;10.640;2024-01-30T00:36:53;12.10;;;7.23;;
40150;SDS011;25866;52.420;10.640;2024-01-30T00:39:19;8.57;;;6.30;;
40150;SDS011;25866;52.420;10.640;2024-01-30T00:41:45;11.50;;;6.87;;
40150;SDS011;25866;52.420;10.640;2024-01-30T00:44:10;9.80;;;7.37;;
40150;SDS011;25866;52.420;10.640;2024-01-30T00:46:36;9.70;;;7.07;;
40150;SDS011;25866;52.420;10.640;2024-01-30T00:49:02;12.13;;;6.70;;
40150;SDS011;25866;52.420;10.640;2024-01-30T00:51:28;9.70;;;6.70;;
40150;SDS011;25866;52.420;10.640;2024-01-30T00:53:55;9.20;;;6.47;;
40150;SDS011;25866;52.420;10.640;2024-01-30T00:56:20;11.20;;;6.93;;
40150;SDS011;25866;52.420;10.640;2024-01-30T00:58:46;10.37;;;6.77;;
40150;SDS011;25866;52.420;10.640;2024-01-30T01:01:12;10.23;;;6.87;;
40150;SDS011;25866;52.420;10.640;2024-01-30T01:03:38;9.97;;;6.77;;
40150;SDS011;25866;52.420;10.640;2024-01-30T01:06:06;12.13;;;7.10;;
40150;SDS011;25866;52.420;10.640;2024-01-30T01:08:31;10.27;;;6.80;;
40150;SDS011;25866;52.420;10.640;2024-01-30T01:10:57;9.83;;;6.57;;
40150;SDS011;25866;52.420;10.640;2024-01-30T01:13:24;11.03;;;6.83;;
40150;SDS011;25866;52.420;10.640;2024-01-30T01:15:50;9.10;;;6.70;;
40150;SDS011;25866;52.420;10.640;2024-01-30T01:18:15;9.30;;;6.93;;
40150;SDS011;25866;52.420;10.640;2024-01-30T01:20:41;8.90;;;7.00;;
40150;SDS011;25866;52.420;10.640;2024-01-30T01:23:07;13.53;;;6.90;;
40150;SDS011;25866;52.420;10.640;2024-01-30T01:25:33;10.03;;;6.87;;
40150;SDS011;25866;52.420;10.640;2024-01-30T01:27:58;11.37;;;6.80;;
40150;SDS011;25866;52.420;10.640;2024-01-30T01:30:26;10.70;;;7.00;;
40150;SDS011;25866;52.420;10.640;2024-01-30T01:32:53;8.87;;;6.53;;
40150;SDS011;25866;52.420;10.640;2024-01-30T01:35:23;9.03;;;6.73;;
40150;SDS011;25866;52.420;10.640;2024-01-30T01:37:53;8.23;;;6.00;;
40150;SDS011;25866;52.420;10.640;2024-01-30T01:40:29;10.27;;;6.77;;
40150;SDS011;25866;52.420;10.640;2024-01-30T01:42:55;11.20;;;7.17;;
40150;SDS011;25866;52.420;10.640;2024-01-30T01:45:21;11.87;;;7.43;;
40150;SDS011;25866;52.420;10.640;2024-01-30T01:47:48;10.30;;;6.87;;
40150;SDS011;25866;52.420;10.640;2024-01-30T01:50:16;10.90;;;7.23;;
40150;SDS011;25866;52.420;10.640;2024-01-30T01:52:47;9.40;;;6.50;;
40150;SDS011;25866;52.420;10.640;2024-01-30T01:55:14;9.97;;;7.00;;
40150;SDS011;25866;52.420;10.640;2024-01-30T01:57:43;10.33;;;6.77;;
40150;SDS011;25866;52.420;10.640;2024-01-30T02:00:10;9.10;;;6.27;;
40150;SDS011;25866;52.420;10.640;2024-01-30T02:02:37;11.07;;;6.83;;
40150;SDS011;25866;52.420;10.640;2024-01-30T02:05:04;11.67;;;6.63;;
40150;SDS011;25866;52.420;10.640;2024-01-30T02:07:31;9.67;;;6.43;;
40150;SDS011;25866;52.420;10.640;2024-01-30T02:09:56;9.67;;;6.77;;
40150;SDS011;25866;52.420;10.640;2024-01-30T02:12:22;10.03;;;6.70;;
40150;SDS011;25866;52.420;10.640;2024-01-30T02:14:48;9.93;;;6.57;;
40150;SDS011;25866;52.420;10.640;2024-01-30T02:17:15;9.53;;;7.13;;
40150;SDS011;25866;52.420;10.640;2024-01-30T02:19:41;11.77;;;7.40;;
40150;SDS011;25866;52.420;10.640;2024-01-30T02:22:07;11.37;;;7.07;;
40150;SDS011;25866;52.420;10.640;2024-01-30T02:24:33;10.70;;;6.87;;
40150;SDS011;25866;52.420;10.640;2024-01-30T02:26:59;10.53;;;7.03;;
40150;SDS011;25866;52.420;10.640;2024-01-30T02:29:25;10.03;;;7.03;;
40150;SDS011;25866;52.420;10.640;2024-01-30T02:31:51;10.40;;;7.13;;
40150;SDS011;25866;52.420;10.640;2024-01-30T02:34:18;10.50;;;7.20;;
40150;SDS011;25866;52.420;10.640;2024-01-30T02:36:44;8.80;;;6.77;;
40150;SDS011;25866;52.420;10.640;2024-01-30T02:39:10;9.90;;;6.80;;
40150;SDS011;25866;52.420;10.640;2024-01-30T02:41:36;12.03;;;7.33;;
40150;SDS011;25866;52.420;10.640;2024-01-30T02:44:02;11.17;;;7.37;;
40150;SDS011;25866;52.420;10.640;2024-01-30T02:46:29;13.23;;;7.67;;
40150;SDS011;25866;52.420;10.640;2024-01-30T02:48:55;13.07;;;7.30;;
40150;SDS011;25866;52.420;10.640;2024-01-30T02:51:20;10.53;;;6.53;;
40150;SDS011;25866;52.420;10.640;2024-01-30T02:53:46;10.07;;;6.90;;
40150;SDS011;25866;52.420;10.640;2024-01-30T02:56:12;9.33;;;6.80;;
40150;SDS011;25866;52.420;10.640;2024-01-30T02:58:41;10.70;;;6.70;;
40150;SDS011;25866;52.420;10.640;2024-01-30T03:01:07;11.10;;;6.83;;
40150;SDS011;25866;52.420;10.640;2024-01-30T03:03:33;11.10;;;6.53;;
40150;SDS011;25866;52.420;10.640;2024-01-30T03:06:01;10.70;;;6.73;;
40150;SDS011;25866;52.420;10.640;2024-01-30T03:08:27;12.47;;;6.60;;
40150;SDS011;25866;52.420;10.640;2024-01-30T03:10:53;10.13;;;6.90;;
40150;SDS011;25866;52.420;10.640;2024-01-30T03:13:19;10.77;;;7.03;;
40150;SDS011;25866;52.420;10.640;2024-01-30T03:15:48;9.07;;;6.93;;
40150;SDS011;25866;52.420;10.640;2024-01-30T03:18:14;16.43;;;7.43;;
40150;SDS011;25866;52.420;10.640;2024-01-30T03:20:40;9.83;;;6.97;;
40150;SDS011;25866;52.420;10.640;2024-01-30T03:23:05;9.87;;;6.77;;
40150;SDS011;25866;52.420;10.640;2024-01-30T03:25:31;11.00;;;6.93;;
40150;SDS011;25866;52.420;10.640;2024-01-30T03:27:57;8.90;;;7.20;;
40150;SDS011;25866;52.420;10.640;2024-01-30T03:30:23;12.63;;;7.43;;
40150;SDS011;25866;52.420;10.640;2024-01-30T03:32:48;12.13;;;7.20;;
40150;SDS011;25866;52.420;10.640;2024-01-30T03:35:15;14.87;;;6.93;;
40150;SDS011;25866;52.420;10.640;2024-01-30T03:37:41;8.40;;;6.47;;
40150;SDS011;25866;52.420;10.640;2024-01-30T03:40:07;9.80;;;6.63;;
40150;SDS011;25866;52.420;10.640;2024-01-30T03:42:33;10.00;;;6.87;;
40150;SDS011;25866;52.420;10.640;2024-01-30T03:44:59;8.97;;;6.77;;
40150;SDS011;25866;52.420;10.640;2024-01-30T03:47:24;8.53;;;6.30;;
40150;SDS011;25866;52.420;10.640;2024-01-30T03:49:50;9.73;;;6.77;;
40150;SDS011;25866;52.420;10.640;2024-01-30T03:52:16;9.43;;;6.57;;
40150;SDS011;25866;52.420;10.640;2024-01-30T03:54:42;12.00;;;6.83;;
40150;SDS011;25866;52.420;10.640;2024-01-30T03:57:08;8.97;;;7.10;;
40150;SDS011;25866;52.420;10.640;2024-01-30T03:59:33;9.30;;;7.13;;
40150;SDS011;25866;52.420;10.640;2024-01-30T04:01:59;11.40;;;7.37;;
40150;SDS011;25866;52.420;10.640;2024-01-30T04:04:25;10.80;;;6.90;;
40150;SDS011;25866;52.420;10.640;2024-01-30T04:06:51;10.43;;;7.27;;
40150;SDS011;25866;52.420;10.640;2024-01-30T04:09:16;11.03;;;6.90;;
40150;SDS011;25866;52.420;10.640;2024-01-30T04:11:42;11.47;;;6.73;;
40150;SDS011;25866;52.420;10.640;2024-01-30T04:14:08;8.60;;;7.03;;
40150;SDS011;25866;52.420;10.640;2024-01-30T04:16:34;10.70;;;7.17;;
40150;SDS011;25866;52.420;10.640;2024-01-30T04:19:01;9.60;;;7.20;;
40150;SDS011;25866;52.420;10.640;2024-01-30T04:21:27;13.33;;;7.80;;
40150;SDS011;25866;52.420;10.640;2024-01-30T04:23:52;11.47;;;7.20;;
40150;SDS011;25866;52.420;10.640;2024-01-30T04:26:18;12.33;;;7.53;;
40150;SDS011;25866;52.420;10.640;2024-01-30T04:28:44;12.47;;;7.50;;
40150;SDS011;25866;52.420;10.640;2024-01-30T04:31:10;8.90;;;6.43;;
40150;SDS011;25866;52.420;10.640;2024-01-30T04:33:36;7.73;;;6.30;;
40150;SDS011;25866;52.420;10.640;2024-01-30T04:36:03;10.53;;;7.20;;
40150;SDS011;25866;52.420;10.640;2024-01-30T04:38:29;9.50;;;6.17;;
40150;SDS011;25866;52.420;10.640;2024-01-30T04:40:54;9.13;;;6.60;;
40150;SDS011;25866;52.420;10.640;2024-01-30T04:43:20;10.37;;;7.43;;
40150;SDS011;25866;52.420;10.640;2024-01-30T04:45:46;12.47;;;7.47;;
40150;SDS011;25866;52.420;10.640;2024-01-30T04:48:12;9.90;;;7.60;;
40150;SDS011;25866;52.420;10.640;2024-01-30T04:50:38;10.77;;;7.50;;
40150;SDS011;25866;52.420;10.640;2024-01-30T04:53:04;11.37;;;7.20;;
40150;SDS011;25866;52.420;10.640;2024-01-30T04:55:30;13.03;;;7.00;;
40150;SDS011;25866;52.420;10.640;2024-01-30T04:57:56;10.83;;;7.53;;
40150;SDS011;25866;52.420;10.640;2024-01-30T05:00:21;11.47;;;7.73;;
40150;SDS011;25866;52.420;10.640;2024-01-30T05:02:47;9.70;;;7.57;;
40150;SDS011;25866;52.420;10.640;2024-01-30T05:05:13;11.73;;;8.07;;
40150;SDS011;25866;52.420;10.640;2024-01-30T05:07:40;10.00;;;7.23;;
40150;SDS011;25866;52.420;10.640;2024-01-30T05:10:06;10.47;;;7.33;;
40150;SDS011;25866;52.420;10.640;2024-01-30T05:12:33;11.97;;;7.30;;
40150;SDS011;25866;52.420;10.640;2024-01-30T05:14:59;12.47;;;8.13;;
40150;SDS011;25866;52.420;10.640;2024-01-30T05:17:25;12.07;;;8.00;;
40150;SDS011;25866;52.420;10.640;2024-01-30T05:19:51;9.83;;;7.40;;
40150;SDS011;25866;52.420;10.640;2024-01-30T05:22:16;11.63;;;7.47;;
40150;SDS011;25866;52.420;10.640;2024-01-30T05:24:43;10.13;;;7.53;;
40150;SDS011;25866;52.420;10.640;2024-01-30T05:27:09;13.37;;;7.27;;
40150;SDS011;25866;52.420;10.640;2024-01-30T05:29:35;11.80;;;8.07;;
40150;SDS011;25866;52.420;10.640;2024-01-30T05:32:01;12.27;;;7.33;;
40150;SDS011;25866;52.420;10.640;2024-01-30T05:34:28;13.97;;;7.93;;
40150;SDS011;25866;52.420;10.640;2024-01-30T05:36:54;13.87;;;7.83;;
40150;SDS011;25866;52.420;10.640;2024-01-30T05:39:19;11.17;;;7.37;;
40150;SDS011;25866;52.420;10.640;2024-01-30T05:41:45;12.07;;;7.07;;
40150;SDS011;25866;52.420;10.640;2024-01-30T05:44:11;10.00;;;6.67;;
40150;SDS011;25866;52.420;10.640;2024-01-30T05:46:37;9.37;;;7.40;;
40150;SDS011;25866;52.420;10.640;2024-01-30T05:49:03;9.10;;;6.50;;
40150;SDS011;25866;52.420;10.640;2024-01-30T05:51:29;10.27;;;7.03;;
40150;SDS011;25866;52.420;10.640;2024-01-30T05:53:55;9.20;;;6.97;;
40150;SDS011;25866;52.420;10.640;2024-01-30T05:56:21;11.30;;;6.83;;
40150;SDS011;25866;52.420;10.640;2024-01-30T05:58:47;11.57;;;6.70;;
40150;SDS011;25866;52.420;10.640;2024-01-30T06:01:13;8.23;;;6.50;;
40150;SDS011;25866;52.420;10.640;2024-01-30T06:03:38;9.93;;;6.90;;
40150;SDS011;25866;52.420;10.640;2024-01-30T06:06:04;12.37;;;6.93;;
40150;SDS011;25866;52.420;10.640;2024-01-30T06:08:30;12.97;;;6.90;;
40150;SDS011;25866;52.420;10.640;2024-01-30T06:10:56;9.70;;;6.93;;
40150;SDS011;25866;52.420;10.640;2024-01-30T06:13:22;10.57;;;7.03;;
40150;SDS011;25866;52.420;10.640;2024-01-30T06:15:47;14.20;;;7.83;;
40150;SDS011;25866;52.420;10.640;2024-01-30T06:18:13;11.90;;;7.73;;
40150;SDS011;25866;52.420;10.640;2024-01-30T06:20:39;11.87;;;7.53;;
40150;SDS011;25866;52.420;10.640;2024-01-30T06:23:05;10.40;;;7.93;;
40150;SDS011;25866;52.420;10.640;2024-01-30T06:25:30;14.77;;;8.50;;
40150;SDS011;25866;52.420;10.640;2024-01-30T06:27:56;14.13;;;8.30;;
40150;SDS011;25866;52.420;10.640;2024-01-30T06:30:22;10.77;;;7.63;;
40150;SDS011;25866;52.420;10.640;2024-01-30T06:32:48;13.10;;;7.77;;
40150;SDS011;25866;52.420;10.640;2024-01-30T06:35:13;10.83;;;7.77;;
40150;SDS011;25866;52.420;10.640;2024-01-30T06:37:39;11.33;;;7.80;;
40150;SDS011;25866;52.420;10.640;2024-01-30T06:40:05;11.53;;;8.00;;
40150;SDS011;25866;52.420;10.640;2024-01-30T06:42:32;10.37;;;7.17;;
40150;SDS011;25866;52.420;10.640;2024-01-30T06:44:57;10.40;;;7.43;;
40150;SDS011;25866;52.420;10.640;2024-01-30T06:47:23;10.43;;;7.37;;
40150;SDS011;25866;52.420;10.640;2024-01-30T06:49:49;12.47;;;8.20;;
40150;SDS011;25866;52.420;10.640;2024-01-30T06:52:15;16.07;;;7.87;;
40150;SDS011;25866;52.420;10.640;2024-01-30T06:54:40;12.83;;;8.20;;
40150;SDS011;25866;52.420;10.640;2024-01-30T06:57:06;15.27;;;8.37;;
40150;SDS011;25866;52.420;10.640;2024-01-30T06:59:36;11.87;;;8.33;;
40150;SDS011;25866;52.420;10.640;2024-01-30T07:02:08;13.43;;;7.77;;
40150;SDS011;25866;52.420;10.640;2024-01-30T07:04:34;12.37;;;7.70;;
40150;SDS011;25866;52.420;10.640;2024-01-30T07:07:02;13.77;;;8.17;;
40150;SDS011;25866;52.420;10.640;2024-01-30T07:09:30;11.57;;;7.83;;
40150;SDS011;25866;52.420;10.640;2024-01-30T07:11:56;11.63;;;7.90;;
40150;SDS011;25866;52.420;10.640;2024-01-30T07:14:23;12.80;;;7.87;;
40150;SDS011;25866;52.420;10.640;2024-01-30T07:16:50;11.10;;;7.90;;
40150;SDS011;25866;52.420;10.640;2024-01-30T07:19:16;11.57;;;8.20;;
40150;SDS011;25866;52.420;10.640;2024-01-30T07:21:42;13.60;;;8.00;;
40150;SDS011;25866;52.420;10.640;2024-01-30T07:24:07;12.47;;;7.73;;
40150;SDS011;25866;52.420;10.640;2024-01-30T07:26:33;12.53;;;7.93;;
40150;SDS011;25866;52.420;10.640;2024-01-30T07:29:00;12.30;;;7.63;;
40150;SDS011;25866;52.420;10.640;2024-01-30T07:31:26;13.37;;;7.77;;
40150;SDS011;25866;52.420;10.640;2024-01-30T07:33:52;14.87;;;8.07;;
40150;SDS011;25866;52.420;10.640;2024-01-30T07:36:19;14.03;;;7.77;;
40150;SDS011;25866;52.420;10.640;2024-01-30T07:38:45;11.83;;;7.67;;
40150;SDS011;25866;52.420;10.640;2024-01-30T07:41:11;11.67;;;7.57;;
40150;SDS011;25866;52.420;10.640;2024-01-30T07:43:38;11.63;;;7.53;;
40150;SDS011;25866;52.420;10.640;2024-01-30T07:46:03;14.57;;;8.00;;
40150;SDS011;25866;52.420;10.640;2024-01-30T07:48:31;12.90;;;7.60;;
40150;SDS011;25866;52.420;10.640;2024-01-30T07:50:59;14.40;;;7.90;;
40150;SDS011;25866;52.420;10.640;2024-01-30T07:53:24;10.67;;;7.40;;
40150;SDS011;25866;52.420;10.640;2024-01-30T07:55:50;11.87;;;7.83;;
40150;SDS011;25866;52.420;10.640;2024-01-30T07:58:17;12.07;;;7.77;;
40150;SDS011;25866;52.420;10.640;2024-01-30T08:00:43;13.13;;;7.63;;
40150;SDS011;25866;52.420;10.640;2024-01-30T08:03:08;15.80;;;7.80;;
40150;SDS011;25866;52.420;10.640;2024-01-30T08:05:34;13.70;;;8.13;;
40150;SDS011;25866;52.420;10.640;2024-01-30T08:08:00;12.17;;;7.73;;
40150;SDS011;25866;52.420;10.640;2024-01-30T08:10:26;11.47;;;7.73;;
40150;SDS011;25866;52.420;10.640;2024-01-30T08:12:51;11.20;;;7.83;;
40150;SDS011;25866;52.420;10.640;2024-01-30T08:15:17;11.90;;;7.30;;
40150;SDS011;25866;52.420;10.640;2024-01-30T08:17:43;14.70;;;7.80;;
40150;SDS011;25866;52.420;10.640;2024-01-30T08:20:09;12.07;;;7.77;;
40150;SDS011;25866;52.420;10.640;2024-01-30T08:22:38;11.40;;;8.60;;
40150;SDS011;25866;52.420;10.640;2024-01-30T08:25:05;13.37;;;8.57;;
40150;SDS011;25866;52.420;10.640;2024-01-30T08:27:31;12.40;;;7.93;;
40150;SDS011;25866;52.420;10.640;2024-01-30T08:29:57;13.03;;;7.63;;
40150;SDS011;25866;52.420;10.640;2024-01-30T08:32:23;15.03;;;8.20;;
40150;SDS011;25866;52.420;10.640;2024-01-30T08:34:49;10.43;;;7.93;;
40150;SDS011;25866;52.420;10.640;2024-01-30T08:37:15;10.47;;;7.27;;
40150;SDS011;25866;52.420;10.640;2024-01-30T08:39:42;10.50;;;7.50;;
40150;SDS011;25866;52.420;10.640;2024-01-30T08:42:08;12.10;;;7.83;;
40150;SDS011;25866;52.420;10.640;2024-01-30T08:44:34;10.77;;;8.03;;
40150;SDS011;25866;52.420;10.640;2024-01-30T08:47:00;13.87;;;8.23;;
40150;SDS011;25866;52.420;10.640;2024-01-30T08:49:26;13.70;;;8.23;;
40150;SDS011;25866;52.420;10.640;2024-01-30T08:51:52;13.10;;;8.90;;
40150;SDS011;25866;52.420;10.640;2024-01-30T08:54:18;11.00;;;8.33;;
40150;SDS011;25866;52.420;10.640;2024-01-30T08:56:44;14.13;;;8.43;;
40150;SDS011;25866;52.420;10.640;2024-01-30T08:59:10;13.60;;;8.63;;
40150;SDS011;25866;52.420;10.640;2024-01-30T09:01:36;13.77;;;8.30;;
40150;SDS011;25866;52.420;10.640;2024-01-30T09:04:02;15.47;;;8.10;;
40150;SDS011;25866;52.420;10.640;2024-01-30T09:06:28;11.10;;;8.10;;
40150;SDS011;25866;52.420;10.640;2024-01-30T09:08:54;12.37;;;8.17;;
40150;SDS011;25866;52.420;10.640;2024-01-30T09:11:20;11.23;;;7.77;;
40150;SDS011;25866;52.420;10.640;2024-01-30T09:13:45;16.63;;;8.33;;
40150;SDS011;25866;52.420;10.640;2024-01-30T09:16:11;10.63;;;7.40;;
40150;SDS011;25866;52.420;10.640;2024-01-30T09:18:37;10.97;;;7.90;;
40150;SDS011;25866;52.420;10.640;2024-01-30T09:21:03;12.33;;;7.60;;
40150;SDS011;25866;52.420;10.640;2024-01-30T09:23:29;11.93;;;7.50;;
40150;SDS011;25866;52.420;10.640;2024-01-30T09:25:55;12.53;;;8.00;;
40150;SDS011;25866;52.420;10.640;2024-01-30T09:28:21;10.70;;;7.50;;
40150;SDS011;25866;52.420;10.640;2024-01-30T09:30:47;11.77;;;7.87;;
40150;SDS011;25866;52.420;10.640;2024-01-30T09:33:13;15.67;;;8.80;;
40150;SDS011;25866;52.420;10.640;2024-01-30T09:35:38;13.67;;;8.50;;
40150;SDS011;25866;52.420;10.640;2024-01-30T09:38:04;12.67;;;8.70;;
40150;SDS011;25866;52.420;10.640;2024-01-30T09:40:30;11.63;;;8.30;;
40150;SDS011;25866;52.420;10.640;2024-01-30T09:42:56;13.73;;;9.30;;
40150;SDS011;25866;52.420;10.640;2024-01-30T09:45:25;12.53;;;9.00;;
40150;SDS011;25866;52.420;10.640;2024-01-30T09:47:51;14.23;;;9.10;;
40150;SDS011;25866;52.420;10.640;2024-01-30T09:50:18;13.43;;;9.20;;
40150;SDS011;25866;52.420;10.640;2024-01-30T09:52:45;13.37;;;9.47;;
40150;SDS011;25866;52.420;10.640;2024-01-30T09:55:12;14.10;;;9.10;;
40150;SDS011;25866;52.420;10.640;2024-01-30T09:57:38;18.33;;;9.27;;
40150;SDS011;25866;52.420;10.640;2024-01-30T10:00:05;15.17;;;9.47;;
40150;SDS011;25866;52.420;10.640;2024-01-30T10:02:35;16.37;;;8.97;;
40150;SDS011;25866;52.420;10.640;2024-01-30T10:05:01;16.87;;;9.07;;
40150;SDS011;25866;52.420;10.640;2024-01-30T10:07:27;16.37;;;8.90;;
40150;SDS011;25866;52.420;10.640;2024-01-30T10:09:53;15.33;;;8.60;;
40150;SDS011;25866;52.420;10.640;2024-01-30T10:12:21;16.50;;;8.83;;
40150;SDS011;25866;52.420;10.640;2024-01-30T10:14:56;12.30;;;8.50;;
40150;SDS011;25866;52.420;10.640;2024-01-30T10:17:24;11.50;;;8.60;;
40150;SDS011;25866;52.420;10.640;2024-01-30T10:19:50;11.77;;;9.03;;
40150;SDS011;25866;52.420;10.640;2024-01-30T10:22:17;12.97;;;8.80;;
40150;SDS011;25866;52.420;10.640;2024-01-30T10:24:43;17.57;;;9.13;;
40150;SDS011;25866;52.420;10.640;2024-01-30T10:27:10;13.27;;;8.60;;
40150;SDS011;25866;52.420;10.640;2024-01-30T10:29:37;12.47;;;7.47;;
40150;SDS011;25866;52.420;10.640;2024-01-30T10:32:03;13.90;;;8.30;;
40150;SDS011;25866;52.420;10.640;2024-01-30T10:34:30;13.50;;;8.33;;
40150;SDS011;25866;52.420;10.640;2024-01-30T10:37:10;12.63;;;8.27;;
40150;SDS011;25866;52.420;10.640;2024-01-30T10:39:42;12.13;;;7.80;;
40150;SDS011;25866;52.420;10.640;2024-01-30T10:42:13;12.10;;;7.53;;
40150;SDS011;25866;52.420;10.640;2024-01-30T10:45:27;12.33;;;7.93;;
40150;SDS011;25866;52.420;10.640;2024-01-30T10:47:39;16.07;;;7.30;;
40150;SDS011;25866;52.420;10.640;2024-01-30T10:50:07;11.77;;;7.63;;
40150;SDS011;25866;52.420;10.640;2024-01-30T10:52:35;8.67;;;6.73;;
40150;SDS011;25866;52.420;10.640;2024-01-30T10:55:02;12.13;;;7.70;;
40150;SDS011;25866;52.420;10.640;2024-01-30T10:57:33;12.43;;;7.67;;
40150;SDS011;25866;52.420;10.640;2024-01-30T11:00:09;14.03;;;7.63;;
40150;SDS011;25866;52.420;10.640;2024-01-30T11:02:38;14.47;;;7.70;;
40150;SDS011;25866;52.420;10.640;2024-01-30T11:05:06;13.53;;;7.87;;
40150;SDS011;25866;52.420;10.640;2024-01-30T11:07:33;10.87;;;6.97;;
40150;SDS011;25866;52.420;10.640;2024-01-30T11:12:27;13.23;;;7.30;;
40150;SDS011;25866;52.420;10.640;2024-01-30T11:15:04;12.13;;;7.17;;
40150;SDS011;25866;52.420;10.640;2024-01-30T11:17:43;10.07;;;6.82;;
40150;SDS011;25866;52.420;10.640;2024-01-30T11:20:25;11.73;;;7.30;;
40150;SDS011;25866;52.420;10.640;2024-01-30T11:22:58;10.80;;;7.30;;
40150;SDS011;25866;52.420;10.640;2024-01-30T11:25:25;10.35;;;6.93;;
40150;SDS011;25866;52.420;10.640;2024-01-30T11:27:54;10.77;;;6.53;;
40150;SDS011;25866;52.420;10.640;2024-01-30T11:30:30;9.95;;;5.60;;
40150;SDS011;25866;52.420;10.640;2024-01-30T11:33:10;8.60;;;5.67;;
40150;SDS011;25866;52.420;10.640;2024-01-30T11:35:41;11.10;;;6.07;;
40150;SDS011;25866;52.420;10.640;2024-01-30T11:38:09;9.07;;;5.57;;
40150;SDS011;25866;52.420;10.640;2024-01-30T11:40:39;8.47;;;5.67;;
40150;SDS011;25866;52.420;10.640;2024-01-30T11:43:06;10.33;;;5.40;;
40150;SDS011;25866;52.420;10.640;2024-01-30T11:45:35;9.87;;;5.83;;
40150;SDS011;25866;52.420;10.640;2024-01-30T11:48:02;11.23;;;5.85;;
40150;SDS011;25866;52.420;10.640;2024-01-30T11:50:35;13.68;;;5.75;;
40150;SDS011;25866;52.420;10.640;2024-01-30T11:53:03;11.93;;;5.75;;
40150;SDS011;25866;52.420;10.640;2024-01-30T11:55:30;10.13;;;5.88;;
40150;SDS011;25866;52.420;10.640;2024-01-30T11:57:57;8.00;;;5.85;;
40150;SDS011;25866;52.420;10.640;2024-01-30T12:00:23;10.07;;;5.97;;
40150;SDS011;25866;52.420;10.640;2024-01-30T12:02:50;10.10;;;5.93;;
40150;SDS011;25866;52.420;10.640;2024-01-30T12:05:24;10.77;;;5.68;;
40150;SDS011;25866;52.420;10.640;2024-01-30T12:07:50;9.75;;;5.85;;
40150;SDS011;25866;52.420;10.640;2024-01-30T12:10:16;13.63;;;5.78;;
40150;SDS011;25866;52.420;10.640;2024-01-30T12:12:43;8.50;;;5.85;;
40150;SDS011;25866;52.420;10.640;2024-01-30T12:15:15;12.55;;;5.82;;
40150;SDS011;25866;52.420;10.640;2024-01-30T12:17:41;6.95;;;5.78;;
40150;SDS011;25866;52.420;10.640;2024-01-30T12:20:08;10.68;;;5.78;;
40150;SDS011;25866;52.420;10.640;2024-01-30T12:22:38;7.95;;;5.50;;
40150;SDS011;25866;52.420;10.640;2024-01-30T12:25:12;8.18;;;5.30;;
40150;SDS011;25866;52.420;10.640;2024-01-30T12:27:40;9.48;;;5.47;;
40150;SDS011;25866;52.420;10.640;2024-01-30T12:30:14;8.95;;;6.05;;
40150;SDS011;25866;52.420;10.640;2024-01-30T12:32:40;8.13;;;5.45;;
40150;SDS011;25866;52.420;10.640;2024-01-30T12:35:09;12.73;;;6.03;;
40150;SDS011;25866;52.420;10.640;2024-01-30T12:37:44;9.52;;;5.95;;
40150;SDS011;25866;52.420;10.640;2024-01-30T12:40:11;7.32;;;5.28;;
40150;SDS011;25866;52.420;10.640;2024-01-30T12:42:39;9.48;;;5.47;;
40150;SDS011;25866;52.420;10.640;2024-01-30T12:45:11;9.73;;;5.32;;
40150;SDS011;25866;52.420;10.640;2024-01-30T12:47:37;7.57;;;5.40;;
40150;SDS011;25866;52.420;10.640;2024-01-30T12:50:02;11.57;;;6.15;;
40150;SDS011;25866;52.420;10.640;2024-01-30T12:52:29;8.50;;;5.45;;
40150;SDS011;25866;52.420;10.640;2024-01-30T12:54:54;10.65;;;5.78;;
40150;SDS011;25866;52.420;10.640;2024-01-30T12:57:21;8.27;;;5.35;;
40150;SDS011;25866;52.420;10.640;2024-01-30T12:59:47;7.40;;;5.40;;
40150;SDS011;25866;52.420;10.640;2024-01-30T13:02:13;11.43;;;5.57;;
40150;SDS011;25866;52.420;10.640;2024-01-30T13:04:40;8.13;;;5.30;;
40150;SDS011;25866;52.420;10.640;2024-01-30T13:07:07;13.68;;;6.00;;
40150;SDS011;25866;52.420;10.640;2024-01-30T13:09:32;8.07;;;5.38;;
40150;SDS011;25866;52.420;10.640;2024-01-30T13:11:58;9.35;;;5.03;;
40150;SDS011;25866;52.420;10.640;2024-01-30T13:14:25;8.15;;;5.45;;
40150;SDS011;25866;52.420;10.640;2024-01-30T13:16:51;7.75;;;5.30;;
40150;SDS011;25866;52.420;10.640;2024-01-30T13:19:17;7.75;;;5.55;;
40150;SDS011;25866;52.420;10.640;2024-01-30T13:21:43;8.88;;;5.22;;
40150;SDS011;25866;52.420;10.640;2024-01-30T13:24:08;7.00;;;5.05;;
40150;SDS011;25866;52.420;10.640;2024-01-30T13:26:34;6.65;;;4.60;;
40150;SDS011;25866;52.420;10.640;2024-01-30T13:29:01;11.32;;;5.47;;
40150;SDS011;25866;52.420;10.640;2024-01-30T13:31:27;9.27;;;5.15;;
40150;SDS011;25866;52.420;10.640;2024-01-30T13:33:53;8.90;;;5.63;;
40150;SDS011;25866;52.420;10.640;2024-01-30T13:36:20;8.48;;;5.07;;
40150;SDS011;25866;52.420;10.640;2024-01-30T13:38:46;10.10;;;5.07;;
40150;SDS011;25866;52.420;10.640;2024-01-30T13:41:12;8.25;;;4.97;;
40150;SDS011;25866;52.420;10.640;2024-01-30T13:43:38;7.53;;;4.95;;
40150;SDS011;25866;52.420;10.640;2024-01-30T13:46:05;7.65;;;4.70;;
40150;SDS011;25866;52.420;10.640;2024-01-30T13:48:31;8.98;;;5.13;;
40150;SDS011;25866;52.420;10.640;2024-01-30T13:50:57;8.35;;;5.32;;
40150;SDS011;25866;52.420;10.640;2024-01-30T13:53:23;6.72;;;4.55;;
40150;SDS011;25866;52.420;10.640;2024-01-30T13:55:48;7.90;;;5.00;;
40150;SDS011;25866;52.420;10.640;2024-01-30T13:58:14;7.35;;;5.35;;
40150;SDS011;25866;52.420;10.640;2024-01-30T14:00:40;9.10;;;5.35;;
40150;SDS011;25866;52.420;10.640;2024-01-30T14:03:06;9.43;;;5.55;;
40150;SDS011;25866;52.420;10.640;2024-01-30T14:05:35;6.35;;;4.82;;
40150;SDS011;25866;52.420;10.640;2024-01-30T14:08:01;7.78;;;5.13;;
40150;SDS011;25866;52.420;10.640;2024-01-30T14:10:27;8.13;;;5.45;;
40150;SDS011;25866;52.420;10.640;2024-01-30T14:12:52;7.78;;;5.28;;
40150;SDS011;25866;52.420;10.640;2024-01-30T14:15:18;9.00;;;5.45;;
40150;SDS011;25866;52.420;10.640;2024-01-30T14:17:44;7.37;;;5.30;;
40150;SDS011;25866;52.420;10.640;2024-01-30T14:20:10;8.32;;;5.30;;
40150;SDS011;25866;52.420;10.640;2024-01-30T14:22:36;9.13;;;5.70;;
40150;SDS011;25866;52.420;10.640;2024-01-30T14:25:02;11.40;;;5.30;;
40150;SDS011;25866;52.420;10.640;2024-01-30T14:27:32;8.00;;;5.53;;